sensor_id;sensor_type;location;lat;lon;timestamp;temperature;humidity
55135;DHT22;41031;44.750;11.308;2023-02-21T00:00:06;8.20;91.50
55135;DHT22;41031;44.750;11.308;2023-02-21T00:02:52;8.20;91.70
55135;DHT22;41031;44.750;11.308;2023-02-21T00:05:38;8.20;91.80
55135;DHT22;41031;44.750;11.308;2023-02-21T00:08:23;8.20;91.80
55135;DHT22;41031;44.750;11.308;2023-02-21T00:11:11;8.20;91.70
55135;DHT22;41031;44.750;11.308;2023-02-21T00:13:56;8.10;91.80
55135;DHT22;41031;44.750;11.308;2023-02-21T00:16:42;8.20;91.90
55135;DHT22;41031;44.750;11.308;2023-02-21T00:19:28;8.10;91.80
55135;DHT22;41031;44.750;11.308;2023-02-21T00:22:14;8.10;91.80
55135;DHT22;41031;44.750;11.308;2023-02-21T00:24:59;8.10;91.80
55135;DHT22;41031;44.750;11.308;2023-02-21T00:27:45;8.00;91.70
55135;DHT22;41031;44.750;11.308;2023-02-21T00:30:31;8.00;91.80
55135;DHT22;41031;44.750;11.308;2023-02-21T00:33:17;8.00;91.90
55135;DHT22;41031;44.750;11.308;2023-02-21T00:36:03;8.00;91.90
55135;DHT22;41031;44.750;11.308;2023-02-21T00:38:49;8.00;92.00
55135;DHT22;41031;44.750;11.308;2023-02-21T00:41:35;7.90;92.00
55135;DHT22;41031;44.750;11.308;2023-02-21T00:44:21;8.00;92.00
55135;DHT22;41031;44.750;11.308;2023-02-21T00:47:07;7.90;92.00
55135;DHT22;41031;44.750;11.308;2023-02-21T00:49:54;7.90;92.10
55135;DHT22;41031;44.750;11.308;2023-02-21T00:52:40;7.90;92.20
55135;DHT22;41031;44.750;11.308;2023-02-21T00:55:26;7.90;92.20
55135;DHT22;41031;44.750;11.308;2023-02-21T00:58:11;7.90;92.20
55135;DHT22;41031;44.750;11.308;2023-02-21T01:00:57;7.90;92.20
55135;DHT22;41031;44.750;11.308;2023-02-21T01:03:43;7.80;92.10
55135;DHT22;41031;44.750;11.308;2023-02-21T01:06:29;7.80;92.10
55135;DHT22;41031;44.750;11.308;2023-02-21T01:09:14;7.80;92.10
55135;DHT22;41031;44.750;11.308;2023-02-21T01:12:00;7.80;92.20
55135;DHT22;41031;44.750;11.308;2023-02-21T01:14:46;7.70;92.30
55135;DHT22;41031;44.750;11.308;2023-02-21T01:17:32;7.70;92.20
55135;DHT22;41031;44.750;11.308;2023-02-21T01:20:18;7.70;92.30
55135;DHT22;41031;44.750;11.308;2023-02-21T01:23:04;7.80;92.50
55135;DHT22;41031;44.750;11.308;2023-02-21T01:25:49;7.70;92.50
55135;DHT22;41031;44.750;11.308;2023-02-21T01:28:36;7.80;92.70
55135;DHT22;41031;44.750;11.308;2023-02-21T01:31:23;7.70;92.70
55135;DHT22;41031;44.750;11.308;2023-02-21T01:34:09;7.70;92.80
55135;DHT22;41031;44.750;11.308;2023-02-21T01:36:55;7.80;93.00
55135;DHT22;41031;44.750;11.308;2023-02-21T01:39:40;7.70;93.00
55135;DHT22;41031;44.750;11.308;2023-02-21T01:42:27;7.70;93.00
55135;DHT22;41031;44.750;11.308;2023-02-21T01:48:13;7.70;92.90
55135;DHT22;41031;44.750;11.308;2023-02-21T01:51:00;7.70;92.90
55135;DHT22;41031;44.750;11.308;2023-02-21T01:53:47;7.70;92.90
55135;DHT22;41031;44.750;11.308;2023-02-21T01:56:34;7.60;92.90
55135;DHT22;41031;44.750;11.308;2023-02-21T01:59:22;7.60;93.00
55135;DHT22;41031;44.750;11.308;2023-02-21T02:05:20;7.60;93.00
55135;DHT22;41031;44.750;11.308;2023-02-21T02:08:05;7.70;93.10
55135;DHT22;41031;44.750;11.308;2023-02-21T02:11:03;7.70;93.10
55135;DHT22;41031;44.750;11.308;2023-02-21T02:14:47;7.70;93.20
55135;DHT22;41031;44.750;11.308;2023-02-21T02:22:07;7.70;93.40
55135;DHT22;41031;44.750;11.308;2023-02-21T02:24:59;7.70;93.50
55135;DHT22;41031;44.750;11.308;2023-02-21T02:36:09;7.70;93.80
55135;DHT22;41031;44.750;11.308;2023-02-21T02:39:04;7.70;93.80
55135;DHT22;41031;44.750;11.308;2023-02-21T02:44:20;7.60;93.70
55135;DHT22;41031;44.750;11.308;2023-02-21T02:46:51;7.60;93.60
55135;DHT22;41031;44.750;11.308;2023-02-21T02:49:23;7.60;93.60
55135;DHT22;41031;44.750;11.308;2023-02-21T02:51:51;7.60;93.60
55135;DHT22;41031;44.750;11.308;2023-02-21T02:54:21;7.50;93.70
55135;DHT22;41031;44.750;11.308;2023-02-21T02:56:49;7.50;93.60
55135;DHT22;41031;44.750;11.308;2023-02-21T02:59:22;7.50;93.50
55135;DHT22;41031;44.750;11.308;2023-02-21T03:13:21;7.30;93.30
55135;DHT22;41031;44.750;11.308;2023-02-21T03:15:58;7.20;93.40
55135;DHT22;41031;44.750;11.308;2023-02-21T03:18:47;7.20;93.70
55135;DHT22;41031;44.750;11.308;2023-02-21T03:21:20;7.10;93.50
55135;DHT22;41031;44.750;11.308;2023-02-21T03:23:57;7.10;93.60
55135;DHT22;41031;44.750;11.308;2023-02-21T03:26:30;7.10;93.60
55135;DHT22;41031;44.750;11.308;2023-02-21T03:29:09;7.00;93.60
55135;DHT22;41031;44.750;11.308;2023-02-21T03:31:46;7.00;93.70
55135;DHT22;41031;44.750;11.308;2023-02-21T03:34:15;7.00;93.70
55135;DHT22;41031;44.750;11.308;2023-02-21T03:36:42;7.10;93.70
55135;DHT22;41031;44.750;11.308;2023-02-21T03:39:10;7.10;93.70
55135;DHT22;41031;44.750;11.308;2023-02-21T03:41:37;7.10;93.70
55135;DHT22;41031;44.750;11.308;2023-02-21T03:44:05;7.00;93.60
55135;DHT22;41031;44.750;11.308;2023-02-21T03:46:33;7.00;93.60
55135;DHT22;41031;44.750;11.308;2023-02-21T03:49:00;7.00;93.60
55135;DHT22;41031;44.750;11.308;2023-02-21T03:51:28;7.00;93.60
55135;DHT22;41031;44.750;11.308;2023-02-21T03:53:56;7.00;93.70
55135;DHT22;41031;44.750;11.308;2023-02-21T03:56:34;7.00;93.90
55135;DHT22;41031;44.750;11.308;2023-02-21T03:59:20;7.00;94.00
55135;DHT22;41031;44.750;11.308;2023-02-21T04:01:47;7.00;94.10
55135;DHT22;41031;44.750;11.308;2023-02-21T04:04:16;7.00;94.20
55135;DHT22;41031;44.750;11.308;2023-02-21T04:06:45;7.00;94.30
55135;DHT22;41031;44.750;11.308;2023-02-21T04:09:12;7.00;94.40
55135;DHT22;41031;44.750;11.308;2023-02-21T04:11:44;7.00;94.40
55135;DHT22;41031;44.750;11.308;2023-02-21T04:14:12;7.00;94.30
55135;DHT22;41031;44.750;11.308;2023-02-21T04:16:40;7.00;94.30
55135;DHT22;41031;44.750;11.308;2023-02-21T04:19:08;7.00;94.30
55135;DHT22;41031;44.750;11.308;2023-02-21T04:21:36;7.00;94.30
55135;DHT22;41031;44.750;11.308;2023-02-21T04:24:04;6.90;94.20
55135;DHT22;41031;44.750;11.308;2023-02-21T04:26:32;6.90;94.20
55135;DHT22;41031;44.750;11.308;2023-02-21T04:29:03;6.90;94.20
55135;DHT22;41031;44.750;11.308;2023-02-21T04:31:32;6.90;94.30
55135;DHT22;41031;44.750;11.308;2023-02-21T04:34:04;6.90;94.30
55135;DHT22;41031;44.750;11.308;2023-02-21T04:36:40;6.90;94.30
55135;DHT22;41031;44.750;11.308;2023-02-21T04:39:07;6.90;94.30
55135;DHT22;41031;44.750;11.308;2023-02-21T04:41:36;6.90;94.40
55135;DHT22;41031;44.750;11.308;2023-02-21T04:44:05;6.80;94.40
55135;DHT22;41031;44.750;11.308;2023-02-21T04:46:33;6.80;94.40
55135;DHT22;41031;44.750;11.308;2023-02-21T04:49:01;6.90;94.40
55135;DHT22;41031;44.750;11.308;2023-02-21T04:51:28;6.80;94.30
55135;DHT22;41031;44.750;11.308;2023-02-21T04:53:55;6.80;94.30
55135;DHT22;41031;44.750;11.308;2023-02-21T04:56:24;6.80;94.30
55135;DHT22;41031;44.750;11.308;2023-02-21T04:58:54;6.80;94.30
55135;DHT22;41031;44.750;11.308;2023-02-21T05:01:25;6.80;94.40
55135;DHT22;41031;44.750;11.308;2023-02-21T05:03:54;6.80;94.40
55135;DHT22;41031;44.750;11.308;2023-02-21T05:06:24;6.80;94.50
55135;DHT22;41031;44.750;11.308;2023-02-21T05:08:52;6.80;94.50
55135;DHT22;41031;44.750;11.308;2023-02-21T05:11:20;6.80;94.50
55135;DHT22;41031;44.750;11.308;2023-02-21T05:13:47;6.80;94.50
55135;DHT22;41031;44.750;11.308;2023-02-21T05:16:14;6.70;94.50
55135;DHT22;41031;44.750;11.308;2023-02-21T05:18:44;6.70;94.60
55135;DHT22;41031;44.750;11.308;2023-02-21T05:21:13;6.70;94.60
55135;DHT22;41031;44.750;11.308;2023-02-21T05:23:42;6.70;94.70
55135;DHT22;41031;44.750;11.308;2023-02-21T05:26:25;6.70;94.70
55135;DHT22;41031;44.750;11.308;2023-02-21T05:28:52;6.80;94.80
55135;DHT22;41031;44.750;11.308;2023-02-21T05:31:20;6.70;94.80
55135;DHT22;41031;44.750;11.308;2023-02-21T05:33:49;6.70;94.80
55135;DHT22;41031;44.750;11.308;2023-02-21T05:36:17;6.80;94.80
55135;DHT22;41031;44.750;11.308;2023-02-21T05:38:52;6.70;94.70
55135;DHT22;41031;44.750;11.308;2023-02-21T05:41:19;6.70;94.70
55135;DHT22;41031;44.750;11.308;2023-02-21T05:43:48;6.70;94.70
55135;DHT22;41031;44.750;11.308;2023-02-21T05:46:21;6.70;94.70
55135;DHT22;41031;44.750;11.308;2023-02-21T05:48:49;6.70;94.70
55135;DHT22;41031;44.750;11.308;2023-02-21T05:51:18;6.70;94.60
55135;DHT22;41031;44.750;11.308;2023-02-21T05:53:46;6.60;94.60
55135;DHT22;41031;44.750;11.308;2023-02-21T05:56:14;6.60;94.60
55135;DHT22;41031;44.750;11.308;2023-02-21T05:58:43;6.60;94.50
55135;DHT22;41031;44.750;11.308;2023-02-21T06:01:11;6.60;94.60
55135;DHT22;41031;44.750;11.308;2023-02-21T06:03:38;6.50;94.60
55135;DHT22;41031;44.750;11.308;2023-02-21T06:06:07;6.50;94.60
55135;DHT22;41031;44.750;11.308;2023-02-21T06:08:45;6.50;94.50
55135;DHT22;41031;44.750;11.308;2023-02-21T06:11:13;6.50;94.50
55135;DHT22;41031;44.750;11.308;2023-02-21T06:13:42;6.50;94.60
55135;DHT22;41031;44.750;11.308;2023-02-21T06:16:10;6.50;94.70
55135;DHT22;41031;44.750;11.308;2023-02-21T06:18:39;6.50;94.80
55135;DHT22;41031;44.750;11.308;2023-02-21T06:21:06;6.50;94.80
55135;DHT22;41031;44.750;11.308;2023-02-21T06:23:33;6.50;94.90
55135;DHT22;41031;44.750;11.308;2023-02-21T06:26:01;6.50;95.00
55135;DHT22;41031;44.750;11.308;2023-02-21T06:28:29;6.50;95.00
55135;DHT22;41031;44.750;11.308;2023-02-21T06:30:56;6.60;95.00
55135;DHT22;41031;44.750;11.308;2023-02-21T06:33:24;6.60;95.00
55135;DHT22;41031;44.750;11.308;2023-02-21T06:35:54;6.60;95.00
55135;DHT22;41031;44.750;11.308;2023-02-21T06:38:22;6.60;95.00
55135;DHT22;41031;44.750;11.308;2023-02-21T06:40:49;6.60;95.00
55135;DHT22;41031;44.750;11.308;2023-02-21T06:43:17;6.70;95.10
55135;DHT22;41031;44.750;11.308;2023-02-21T06:45:44;6.70;95.10
55135;DHT22;41031;44.750;11.308;2023-02-21T06:48:16;6.70;95.10
55135;DHT22;41031;44.750;11.308;2023-02-21T06:50:43;6.80;95.10
55135;DHT22;41031;44.750;11.308;2023-02-21T06:53:10;6.80;95.00
55135;DHT22;41031;44.750;11.308;2023-02-21T06:55:37;6.80;95.00
55135;DHT22;41031;44.750;11.308;2023-02-21T06:58:04;6.90;95.10
55135;DHT22;41031;44.750;11.308;2023-02-21T07:00:33;6.90;95.00
55135;DHT22;41031;44.750;11.308;2023-02-21T07:03:00;7.00;95.00
55135;DHT22;41031;44.750;11.308;2023-02-21T07:05:27;7.10;95.00
55135;DHT22;41031;44.750;11.308;2023-02-21T07:07:55;7.10;94.90
55135;DHT22;41031;44.750;11.308;2023-02-21T07:10:22;7.20;95.00
55135;DHT22;41031;44.750;11.308;2023-02-21T07:12:50;7.40;95.10
55135;DHT22;41031;44.750;11.308;2023-02-21T07:15:19;7.50;95.10
55135;DHT22;41031;44.750;11.308;2023-02-21T07:17:46;7.60;95.20
55135;DHT22;41031;44.750;11.308;2023-02-21T07:20:13;7.70;95.50
55135;DHT22;41031;44.750;11.308;2023-02-21T07:22:40;7.80;95.20
55135;DHT22;41031;44.750;11.308;2023-02-21T07:25:11;7.90;95.20
55135;DHT22;41031;44.750;11.308;2023-02-21T07:27:39;8.00;95.20
55135;DHT22;41031;44.750;11.308;2023-02-21T07:30:07;8.10;95.30
55135;DHT22;41031;44.750;11.308;2023-02-21T07:32:34;8.20;95.30
55135;DHT22;41031;44.750;11.308;2023-02-21T07:35:02;8.30;95.30
55135;DHT22;41031;44.750;11.308;2023-02-21T07:37:29;8.40;95.30
55135;DHT22;41031;44.750;11.308;2023-02-21T07:39:56;8.40;95.20
55135;DHT22;41031;44.750;11.308;2023-02-21T07:42:24;8.50;95.20
55135;DHT22;41031;44.750;11.308;2023-02-21T07:44:57;8.60;95.20
55135;DHT22;41031;44.750;11.308;2023-02-21T07:47:26;8.60;95.20
55135;DHT22;41031;44.750;11.308;2023-02-21T07:49:53;8.70;95.20
55135;DHT22;41031;44.750;11.308;2023-02-21T07:52:22;8.80;95.20
55135;DHT22;41031;44.750;11.308;2023-02-21T07:54:49;8.80;95.20
55135;DHT22;41031;44.750;11.308;2023-02-21T07:57:17;8.90;95.20
55135;DHT22;41031;44.750;11.308;2023-02-21T07:59:44;9.00;95.20
55135;DHT22;41031;44.750;11.308;2023-02-21T08:02:13;9.00;95.10
55135;DHT22;41031;44.750;11.308;2023-02-21T08:04:41;9.10;95.20
55135;DHT22;41031;44.750;11.308;2023-02-21T08:07:10;9.10;95.20
55135;DHT22;41031;44.750;11.308;2023-02-21T08:09:40;9.20;95.10
55135;DHT22;41031;44.750;11.308;2023-02-21T08:12:07;9.30;95.10
55135;DHT22;41031;44.750;11.308;2023-02-21T08:14:34;9.30;95.00
55135;DHT22;41031;44.750;11.308;2023-02-21T08:17:02;9.40;95.00
55135;DHT22;41031;44.750;11.308;2023-02-21T08:19:30;9.40;94.90
55135;DHT22;41031;44.750;11.308;2023-02-21T08:21:57;9.50;94.90
55135;DHT22;41031;44.750;11.308;2023-02-21T08:24:25;9.50;94.90
55135;DHT22;41031;44.750;11.308;2023-02-21T08:26:52;9.50;94.90
55135;DHT22;41031;44.750;11.308;2023-02-21T08:29:19;9.60;94.90
55135;DHT22;41031;44.750;11.308;2023-02-21T08:31:48;9.60;94.90
55135;DHT22;41031;44.750;11.308;2023-02-21T08:34:16;9.70;94.80
55135;DHT22;41031;44.750;11.308;2023-02-21T08:36:46;9.70;94.80
55135;DHT22;41031;44.750;11.308;2023-02-21T08:39:16;9.80;94.80
55135;DHT22;41031;44.750;11.308;2023-02-21T08:41:44;9.80;94.70
55135;DHT22;41031;44.750;11.308;2023-02-21T08:44:15;9.80;94.70
55135;DHT22;41031;44.750;11.308;2023-02-21T08:46:46;9.90;94.70
55135;DHT22;41031;44.750;11.308;2023-02-21T08:49:15;10.00;94.70
55135;DHT22;41031;44.750;11.308;2023-02-21T08:51:43;10.00;94.70
55135;DHT22;41031;44.750;11.308;2023-02-21T08:54:10;10.10;94.60
55135;DHT22;41031;44.750;11.308;2023-02-21T08:56:37;10.10;94.60
55135;DHT22;41031;44.750;11.308;2023-02-21T08:59:05;10.20;94.60
55135;DHT22;41031;44.750;11.308;2023-02-21T09:01:35;10.20;94.60
55135;DHT22;41031;44.750;11.308;2023-02-21T09:04:05;10.30;94.50
55135;DHT22;41031;44.750;11.308;2023-02-21T09:06:33;10.30;94.50
55135;DHT22;41031;44.750;11.308;2023-02-21T09:09:00;10.40;94.50
55135;DHT22;41031;44.750;11.308;2023-02-21T09:11:28;10.40;94.40
55135;DHT22;41031;44.750;11.308;2023-02-21T09:13:58;10.40;94.40
55135;DHT22;41031;44.750;11.308;2023-02-21T09:16:29;10.50;94.30
55135;DHT22;41031;44.750;11.308;2023-02-21T09:18:58;10.50;94.30
55135;DHT22;41031;44.750;11.308;2023-02-21T09:21:27;10.50;94.30
55135;DHT22;41031;44.750;11.308;2023-02-21T09:23:57;10.50;94.20
55135;DHT22;41031;44.750;11.308;2023-02-21T09:26:25;10.60;94.30
55135;DHT22;41031;44.750;11.308;2023-02-21T09:28:53;10.60;94.20
55135;DHT22;41031;44.750;11.308;2023-02-21T09:31:20;10.60;94.20
55135;DHT22;41031;44.750;11.308;2023-02-21T09:33:48;10.70;94.10
55135;DHT22;41031;44.750;11.308;2023-02-21T09:36:16;10.70;94.00
55135;DHT22;41031;44.750;11.308;2023-02-21T09:38:50;10.80;93.90
55135;DHT22;41031;44.750;11.308;2023-02-21T09:41:18;10.80;93.90
55135;DHT22;41031;44.750;11.308;2023-02-21T09:43:48;10.80;93.90
55135;DHT22;41031;44.750;11.308;2023-02-21T09:46:39;10.90;93.80
55135;DHT22;41031;44.750;11.308;2023-02-21T09:49:27;10.90;93.80
55135;DHT22;41031;44.750;11.308;2023-02-21T09:51:57;10.90;93.70
55135;DHT22;41031;44.750;11.308;2023-02-21T09:54:39;10.90;93.70
55135;DHT22;41031;44.750;11.308;2023-02-21T09:57:17;11.00;93.70
55135;DHT22;41031;44.750;11.308;2023-02-21T09:59:46;11.00;93.60
55135;DHT22;41031;44.750;11.308;2023-02-21T10:05:27;11.10;93.40
55135;DHT22;41031;44.750;11.308;2023-02-21T10:10:53;11.20;93.40
55135;DHT22;41031;44.750;11.308;2023-02-21T10:16:04;11.30;93.20
55135;DHT22;41031;44.750;11.308;2023-02-21T10:21:15;11.40;93.10
55135;DHT22;41031;44.750;11.308;2023-02-21T10:23:46;11.50;93.00
55135;DHT22;41031;44.750;11.308;2023-02-21T10:26:24;11.60;93.00
55135;DHT22;41031;44.750;11.308;2023-02-21T10:28:53;11.60;92.90
55135;DHT22;41031;44.750;11.308;2023-02-21T10:31:35;11.60;92.80
55135;DHT22;41031;44.750;11.308;2023-02-21T10:34:06;11.70;92.70
55135;DHT22;41031;44.750;11.308;2023-02-21T10:36:34;11.70;92.70
55135;DHT22;41031;44.750;11.308;2023-02-21T10:39:17;11.80;92.70
55135;DHT22;41031;44.750;11.308;2023-02-21T10:41:45;11.80;92.60
55135;DHT22;41031;44.750;11.308;2023-02-21T10:44:22;11.80;92.50
55135;DHT22;41031;44.750;11.308;2023-02-21T10:46:59;11.90;92.40
55135;DHT22;41031;44.750;11.308;2023-02-21T10:49:32;11.90;92.40
55135;DHT22;41031;44.750;11.308;2023-02-21T10:54:32;11.90;91.90
55135;DHT22;41031;44.750;11.308;2023-02-21T10:57:06;11.90;91.80
55135;DHT22;41031;44.750;11.308;2023-02-21T10:59:40;11.80;91.90
55135;DHT22;41031;44.750;11.308;2023-02-21T11:02:28;11.70;92.00
55135;DHT22;41031;44.750;11.308;2023-02-21T11:05:16;11.70;92.10
55135;DHT22;41031;44.750;11.308;2023-02-21T11:08:02;11.70;92.20
55135;DHT22;41031;44.750;11.308;2023-02-21T11:13:03;11.80;92.40
55135;DHT22;41031;44.750;11.308;2023-02-21T11:15:31;11.80;92.80
55135;DHT22;41031;44.750;11.308;2023-02-21T11:20:47;12.00;92.60
55135;DHT22;41031;44.750;11.308;2023-02-21T11:23:27;12.10;92.50
55135;DHT22;41031;44.750;11.308;2023-02-21T11:26:11;12.20;92.50
55135;DHT22;41031;44.750;11.308;2023-02-21T11:28:40;12.30;92.40
55135;DHT22;41031;44.750;11.308;2023-02-21T11:31:26;12.40;92.20
55135;DHT22;41031;44.750;11.308;2023-02-21T11:33:58;12.50;92.10
55135;DHT22;41031;44.750;11.308;2023-02-21T11:36:28;12.60;92.00
55135;DHT22;41031;44.750;11.308;2023-02-21T11:43:57;12.80;91.60
55135;DHT22;41031;44.750;11.308;2023-02-21T11:46:44;12.90;91.50
55135;DHT22;41031;44.750;11.308;2023-02-21T11:49:55;13.00;91.50
55135;DHT22;41031;44.750;11.308;2023-02-21T11:52:59;13.10;91.30
55135;DHT22;41031;44.750;11.308;2023-02-21T11:55:30;13.20;91.20
55135;DHT22;41031;44.750;11.308;2023-02-21T11:58:16;13.30;91.10
55135;DHT22;41031;44.750;11.308;2023-02-21T12:40:39;14.30;87.60
55135;DHT22;41031;44.750;11.308;2023-02-21T12:48:36;14.60;87.50
55135;DHT22;41031;44.750;11.308;2023-02-21T12:51:08;14.60;87.00
55135;DHT22;41031;44.750;11.308;2023-02-21T12:53:57;14.70;86.80
55135;DHT22;41031;44.750;11.308;2023-02-21T12:56:47;14.80;86.60
55135;DHT22;41031;44.750;11.308;2023-02-21T12:59:36;14.80;85.80
55135;DHT22;41031;44.750;11.308;2023-02-21T13:02:24;14.80;85.80
55135;DHT22;41031;44.750;11.308;2023-02-21T13:04:56;14.90;85.90
55135;DHT22;41031;44.750;11.308;2023-02-21T13:07:34;14.90;85.90
55135;DHT22;41031;44.750;11.308;2023-02-21T13:10:14;14.90;85.70
55135;DHT22;41031;44.750;11.308;2023-02-21T13:15:21;14.90;85.50
55135;DHT22;41031;44.750;11.308;2023-02-21T13:17:54;15.00;85.40
55135;DHT22;41031;44.750;11.308;2023-02-21T13:20:25;15.00;85.40
55135;DHT22;41031;44.750;11.308;2023-02-21T13:28:53;15.00;84.90
55135;DHT22;41031;44.750;11.308;2023-02-21T13:31:27;15.00;84.70
55135;DHT22;41031;44.750;11.308;2023-02-21T13:33:59;15.00;84.70
55135;DHT22;41031;44.750;11.308;2023-02-21T13:36:32;15.00;84.60
55135;DHT22;41031;44.750;11.308;2023-02-21T13:39:16;14.90;84.50
55135;DHT22;41031;44.750;11.308;2023-02-21T13:41:49;14.90;84.40
55135;DHT22;41031;44.750;11.308;2023-02-21T13:44:28;14.80;84.40
55135;DHT22;41031;44.750;11.308;2023-02-21T13:47:10;14.70;84.40
55135;DHT22;41031;44.750;11.308;2023-02-21T13:49:53;14.60;84.40
55135;DHT22;41031;44.750;11.308;2023-02-21T13:52:26;14.60;84.30
55135;DHT22;41031;44.750;11.308;2023-02-21T13:57:50;14.40;84.60
55135;DHT22;41031;44.750;11.308;2023-02-21T14:08:30;14.60;84.00
55135;DHT22;41031;44.750;11.308;2023-02-21T14:13:43;14.70;83.50
55135;DHT22;41031;44.750;11.308;2023-02-21T14:21:46;14.90;82.40
55135;DHT22;41031;44.750;11.308;2023-02-21T14:24:22;14.90;82.00
55135;DHT22;41031;44.750;11.308;2023-02-21T14:29:33;15.00;81.90
55135;DHT22;41031;44.750;11.308;2023-02-21T14:52:07;15.10;80.30
55135;DHT22;41031;44.750;11.308;2023-02-21T14:58:18;15.10;80.60
55135;DHT22;41031;44.750;11.308;2023-02-21T15:03:49;15.10;80.50
55135;DHT22;41031;44.750;11.308;2023-02-21T15:06:21;15.00;80.30
55135;DHT22;41031;44.750;11.308;2023-02-21T15:08:51;15.10;80.40
55135;DHT22;41031;44.750;11.308;2023-02-21T15:11:32;15.00;80.40
55135;DHT22;41031;44.750;11.308;2023-02-21T15:14:27;15.10;80.50
55135;DHT22;41031;44.750;11.308;2023-02-21T15:16:59;15.10;80.30
55135;DHT22;41031;44.750;11.308;2023-02-21T15:19:33;15.00;80.10
55135;DHT22;41031;44.750;11.308;2023-02-21T15:22:23;15.00;80.20
55135;DHT22;41031;44.750;11.308;2023-02-21T15:30:28;15.10;80.20
55135;DHT22;41031;44.750;11.308;2023-02-21T15:33:15;15.10;80.30
55135;DHT22;41031;44.750;11.308;2023-02-21T15:35:59;15.20;80.40
55135;DHT22;41031;44.750;11.308;2023-02-21T15:41:06;15.40;80.10
55135;DHT22;41031;44.750;11.308;2023-02-21T15:46:10;15.50;79.60
55135;DHT22;41031;44.750;11.308;2023-02-21T15:48:38;15.50;79.20
55135;DHT22;41031;44.750;11.308;2023-02-21T15:51:10;15.50;78.90
55135;DHT22;41031;44.750;11.308;2023-02-21T15:53:40;15.50;78.90
55135;DHT22;41031;44.750;11.308;2023-02-21T15:56:21;15.50;78.80
55135;DHT22;41031;44.750;11.308;2023-02-21T15:59:11;15.60;78.70
55135;DHT22;41031;44.750;11.308;2023-02-21T16:01:39;15.50;78.40
55135;DHT22;41031;44.750;11.308;2023-02-21T16:04:18;15.50;78.00
55135;DHT22;41031;44.750;11.308;2023-02-21T16:06:52;15.50;77.60
55135;DHT22;41031;44.750;11.308;2023-02-21T16:09:24;15.40;77.40
55135;DHT22;41031;44.750;11.308;2023-02-21T16:14:50;15.30;77.40
55135;DHT22;41031;44.750;11.308;2023-02-21T16:22:47;15.10;77.80
55135;DHT22;41031;44.750;11.308;2023-02-21T16:25:34;15.20;78.00
55135;DHT22;41031;44.750;11.308;2023-02-21T16:28:01;15.10;78.20
55135;DHT22;41031;44.750;11.308;2023-02-21T16:30:37;15.00;78.40
55135;DHT22;41031;44.750;11.308;2023-02-21T16:33:05;15.00;78.50
55135;DHT22;41031;44.750;11.308;2023-02-21T16:35:32;14.90;78.70
55135;DHT22;41031;44.750;11.308;2023-02-21T16:38:00;14.90;78.90
55135;DHT22;41031;44.750;11.308;2023-02-21T16:40:30;14.80;78.90
55135;DHT22;41031;44.750;11.308;2023-02-21T16:43:01;14.70;78.90
55135;DHT22;41031;44.750;11.308;2023-02-21T16:45:29;14.60;79.00
55135;DHT22;41031;44.750;11.308;2023-02-21T16:48:00;14.50;79.20
55135;DHT22;41031;44.750;11.308;2023-02-21T16:50:31;14.40;79.50
55135;DHT22;41031;44.750;11.308;2023-02-21T16:52:59;14.20;79.90
55135;DHT22;41031;44.750;11.308;2023-02-21T16:55:28;14.10;80.30
55135;DHT22;41031;44.750;11.308;2023-02-21T16:58:05;13.90;80.80
55135;DHT22;41031;44.750;11.308;2023-02-21T17:00:33;13.80;81.50
55135;DHT22;41031;44.750;11.308;2023-02-21T17:03:00;13.70;81.90
55135;DHT22;41031;44.750;11.308;2023-02-21T17:05:28;13.60;82.30
55135;DHT22;41031;44.750;11.308;2023-02-21T17:07:56;13.50;82.80
55135;DHT22;41031;44.750;11.308;2023-02-21T17:10:24;13.40;83.20
55135;DHT22;41031;44.750;11.308;2023-02-21T17:12:52;13.30;83.50
55135;DHT22;41031;44.750;11.308;2023-02-21T17:15:19;13.20;84.40
55135;DHT22;41031;44.750;11.308;2023-02-21T17:17:47;13.10;84.00
55135;DHT22;41031;44.750;11.308;2023-02-21T17:20:20;13.00;84.30
55135;DHT22;41031;44.750;11.308;2023-02-21T17:22:49;12.90;84.40
55135;DHT22;41031;44.750;11.308;2023-02-21T17:25:17;12.90;84.70
55135;DHT22;41031;44.750;11.308;2023-02-21T17:27:44;12.80;84.80
55135;DHT22;41031;44.750;11.308;2023-02-21T17:30:13;12.70;85.10
55135;DHT22;41031;44.750;11.308;2023-02-21T17:32:41;12.70;85.30
55135;DHT22;41031;44.750;11.308;2023-02-21T17:35:10;12.50;85.40
55135;DHT22;41031;44.750;11.308;2023-02-21T17:37:42;12.50;85.30
55135;DHT22;41031;44.750;11.308;2023-02-21T17:40:09;12.30;85.20
55135;DHT22;41031;44.750;11.308;2023-02-21T17:42:38;12.20;85.50
55135;DHT22;41031;44.750;11.308;2023-02-21T17:45:08;12.20;86.10
55135;DHT22;41031;44.750;11.308;2023-02-21T17:47:36;12.10;86.70
55135;DHT22;41031;44.750;11.308;2023-02-21T17:50:04;12.00;87.10
55135;DHT22;41031;44.750;11.308;2023-02-21T17:52:31;12.00;87.80
55135;DHT22;41031;44.750;11.308;2023-02-21T17:54:58;12.00;88.20
55135;DHT22;41031;44.750;11.308;2023-02-21T17:57:28;11.90;88.30
55135;DHT22;41031;44.750;11.308;2023-02-21T18:00:00;11.90;88.30
55135;DHT22;41031;44.750;11.308;2023-02-21T18:02:30;11.80;88.20
55135;DHT22;41031;44.750;11.308;2023-02-21T18:04:57;11.70;88.10
55135;DHT22;41031;44.750;11.308;2023-02-21T18:07:25;11.60;88.10
55135;DHT22;41031;44.750;11.308;2023-02-21T18:09:54;11.60;88.40
55135;DHT22;41031;44.750;11.308;2023-02-21T18:12:21;11.50;88.60
55135;DHT22;41031;44.750;11.308;2023-02-21T18:14:48;11.40;88.90
55135;DHT22;41031;44.750;11.308;2023-02-21T18:17:15;11.40;89.30
55135;DHT22;41031;44.750;11.308;2023-02-21T18:19:44;11.30;89.30
55135;DHT22;41031;44.750;11.308;2023-02-21T18:22:11;11.30;89.10
55135;DHT22;41031;44.750;11.308;2023-02-21T18:24:39;11.20;88.80
55135;DHT22;41031;44.750;11.308;2023-02-21T18:27:07;11.10;88.90
55135;DHT22;41031;44.750;11.308;2023-02-21T18:29:34;11.10;90.10
55135;DHT22;41031;44.750;11.308;2023-02-21T18:32:02;11.10;90.90
55135;DHT22;41031;44.750;11.308;2023-02-21T18:34:29;11.10;91.00
55135;DHT22;41031;44.750;11.308;2023-02-21T18:36:56;11.10;91.20
55135;DHT22;41031;44.750;11.308;2023-02-21T18:39:24;11.00;91.30
55135;DHT22;41031;44.750;11.308;2023-02-21T18:41:51;11.00;91.40
55135;DHT22;41031;44.750;11.308;2023-02-21T18:44:19;11.00;91.50
55135;DHT22;41031;44.750;11.308;2023-02-21T18:46:54;11.10;91.80
55135;DHT22;41031;44.750;11.308;2023-02-21T18:49:22;11.10;91.90
55135;DHT22;41031;44.750;11.308;2023-02-21T18:51:49;11.10;91.80
55135;DHT22;41031;44.750;11.308;2023-02-21T18:54:17;11.20;91.70
55135;DHT22;41031;44.750;11.308;2023-02-21T18:56:47;11.10;91.60
55135;DHT22;41031;44.750;11.308;2023-02-21T18:59:20;11.00;91.40